Time;durP1;ratioP1;P1;durP2;ratioP2;P2;SDS_P1;SDS_P2;PMS_P1;PMS_P2;Temp;Humidity;BMP_temperature;BMP_pressure;BME280_temperature;BME280_humidity;BME280_pressure;Samples;Min_cycle;Max_cycle;Signal;HPM_P1;HPM_P2
2021/10/09 00:01:53;;;;;;;50.10;41.47;;;9.80;99.90;;;;;;5100399;28;20086;-48
2021/10/09 00:04:19;;;;;;;48.67;41.97;;;9.80;99.90;;;;;;5072477;28;20052;-47
2021/10/09 00:06:45;;;;;;;47.75;41.17;;;9.90;99.90;;;;;;5097679;28;20067;-46
2021/10/09 00:09:11;;;;;;;45.92;40.60;;;9.80;99.90;;;;;;5110767;28;20064;-48
2021/10/09 00:11:38;;;;;;;48.15;42.90;;;9.90;99.90;;;;;;5075957;28;20098;-50
2021/10/09 00:14:10;;;;;;;46.55;40.35;;;9.90;99.90;;;;;;5111437;28;20706;-48
2021/10/09 00:16:39;;;;;;;48.65;42.70;;;9.80;99.90;;;;;;5091794;28;20051;-49
2021/10/09 00:19:05;;;;;;;50.20;42.53;;;9.90;99.90;;;;;;5090519;28;20694;-48
2021/10/09 00:21:31;;;;;;;45.65;40.67;;;9.80;99.90;;;;;;5090255;28;20504;-47
2021/10/09 00:24:00;;;;;;;50.13;41.78;;;9.80;99.90;;;;;;5090826;28;20056;-47
2021/10/09 00:26:27;;;;;;;47.28;42.13;;;9.80;99.90;;;;;;5110487;28;20196;-49
2021/10/09 00:28:53;;;;;;;48.22;42.90;;;9.80;99.90;;;;;;5110262;28;20131;-47
2021/10/09 00:31:19;;;;;;;50.75;43.38;;;9.80;99.90;;;;;;5092104;28;20051;-50
2021/10/09 00:33:45;;;;;;;48.95;42.50;;;9.80;99.90;;;;;;5081880;28;20055;-48
2021/10/09 00:36:11;;;;;;;49.92;43.08;;;9.80;99.90;;;;;;5105457;28;20539;-48
2021/10/09 00:38:37;;;;;;;52.20;42.05;;;9.80;99.90;;;;;;5110857;28;20054;-48
2021/10/09 00:41:06;;;;;;;51.67;44.85;;;9.80;99.90;;;;;;5110712;28;20096;-47
2021/10/09 00:43:32;;;;;;;53.92;43.92;;;9.80;99.90;;;;;;5109694;28;20043;-47
2021/10/09 00:46:02;;;;;;;50.40;43.22;;;9.80;99.90;;;;;;5090718;28;20059;-48
2021/10/09 00:48:31;;;;;;;50.83;44.08;;;9.80;99.90;;;;;;5110477;28;20058;-46
2021/10/09 00:51:00;;;;;;;51.72;43.08;;;9.80;99.90;;;;;;5110104;28;20062;-48
2021/10/09 00:53:30;;;;;;;51.75;43.83;;;9.80;99.90;;;;;;5110287;28;20822;-48
2021/10/09 00:55:56;;;;;;;55.47;45.75;;;9.80;99.90;;;;;;5108569;28;20105;-51
2021/10/09 00:58:23;;;;;;;56.20;46.00;;;9.80;99.90;;;;;;5108096;28;20052;-48
2021/10/09 01:00:50;;;;;;;55.72;45.63;;;9.80;99.90;;;;;;5090282;28;20047;-46
2021/10/09 01:03:16;;;;;;;55.28;44.75;;;9.80;99.90;;;;;;5109548;28;20051;-47
2021/10/09 01:05:42;;;;;;;57.05;47.00;;;9.80;99.90;;;;;;5091050;28;20051;-49
2021/10/09 01:08:09;;;;;;;53.15;43.97;;;9.80;99.90;;;;;;5108286;28;20054;-47
2021/10/09 01:10:36;;;;;;;58.28;45.47;;;9.80;99.90;;;;;;5090363;28;20088;-48
2021/10/09 01:13:04;;;;;;;55.90;45.60;;;9.80;99.90;;;;;;5091108;28;20480;-49
2021/10/09 01:15:32;;;;;;;51.33;43.95;;;9.80;99.90;;;;;;5109255;28;20543;-47
2021/10/09 01:18:07;;;;;;;58.80;46.63;;;9.80;99.90;;;;;;5083375;28;20052;-49
2021/10/09 01:20:52;;;;;;;67.22;48.63;;;9.70;99.90;;;;;;5099436;28;20043;-48
2021/10/09 01:23:22;;;;;;;62.63;47.28;;;9.70;99.90;;;;;;5090188;28;20101;-48
2021/10/09 01:25:49;;;;;;;66.10;47.28;;;9.70;99.90;;;;;;5102255;28;20449;-47
2021/10/09 01:28:16;;;;;;;60.15;46.65;;;9.70;99.90;;;;;;5108782;28;20819;-47
2021/10/09 01:30:45;;;;;;;58.75;47.47;;;9.70;99.90;;;;;;5090278;28;20102;-49
2021/10/09 01:33:12;;;;;;;59.83;47.50;;;9.70;99.90;;;;;;5109670;28;20055;-49
2021/10/09 01:35:49;;;;;;;58.47;46.95;;;9.70;99.90;;;;;;5108182;28;20051;-47
2021/10/09 01:38:19;;;;;;;64.30;47.05;;;9.70;99.90;;;;;;5090745;28;20060;-49
2021/10/09 01:40:45;;;;;;;65.43;47.22;;;9.70;99.90;;;;;;5108333;28;20872;-48
2021/10/09 01:43:15;;;;;;;62.08;47.08;;;9.60;99.90;;;;;;5073397;28;20062;-47
2021/10/09 01:45:42;;;;;;;66.18;49.22;;;9.60;99.90;;;;;;5064844;28;20384;-49
2021/10/09 01:48:08;;;;;;;61.78;46.97;;;9.60;99.90;;;;;;5083803;28;20051;-48
2021/10/09 01:50:37;;;;;;;61.35;46.63;;;9.60;99.90;;;;;;5090174;28;20062;-53
2021/10/09 01:53:07;;;;;;;;;;;9.60;99.90;;;;;;5075395;28;20499;-48
2021/10/09 01:55:35;;;;;;;62.05;46.45;;;9.60;99.90;;;;;;5081037;28;20325;-49
2021/10/09 01:58:02;;;;;;;61.13;45.38;;;9.60;99.90;;;;;;5108198;28;20051;-47
2021/10/09 02:00:28;;;;;;;59.67;45.00;;;9.60;99.90;;;;;;5073495;28;20055;-47
2021/10/09 02:03:00;;;;;;;60.72;44.95;;;9.50;99.90;;;;;;5089511;28;20067;-48
2021/10/09 02:05:28;;;;;;;62.58;44.15;;;9.50;99.90;;;;;;5090484;28;20089;-48
2021/10/09 02:07:55;;;;;;;66.15;46.42;;;9.50;99.90;;;;;;5090844;28;20055;-52
2021/10/09 02:10:22;;;;;;;66.85;46.88;;;9.50;99.90;;;;;;5090300;28;20055;-49
2021/10/09 02:12:53;;;;;;;65.10;46.88;;;9.50;99.90;;;;;;5090691;28;20057;-50
2021/10/09 02:15:43;;;;;;;70.43;46.92;;;9.50;99.90;;;;;;5108596;28;20511;-50
2021/10/09 02:26:25;;;;;;;84.25;54.00;;;9.70;99.90;;;;;;5107557;28;20083;-46
2021/10/09 02:29:00;;;;;;;86.25;53.08;;;9.70;99.90;;;;;;5091325;28;20047;-49
2021/10/09 02:31:28;;;;;;;96.15;54.88;;;9.80;99.90;;;;;;5073599;28;20051;-48
2021/10/09 02:33:54;;;;;;;89.00;53.72;;;9.90;99.90;;;;;;5084614;28;20061;-49
2021/10/09 02:36:20;;;;;;;93.88;55.15;;;9.90;99.90;;;;;;5087520;28;20473;-48
2021/10/09 02:38:48;;;;;;;97.28;55.72;;;10.00;99.90;;;;;;5067128;28;20510;-49
2021/10/09 02:41:17;;;;;;;105.50;58.15;;;10.00;99.90;;;;;;5107650;28;20051;-48
2021/10/09 02:43:45;;;;;;;104.70;57.53;;;10.10;99.90;;;;;;5087378;28;20056;-49
2021/10/09 02:46:11;;;;;;;116.50;55.33;;;10.10;99.90;;;;;;5084650;28;20131;-52
2021/10/09 02:48:40;;;;;;;101.45;58.75;;;10.10;99.90;;;;;;5088900;28;20055;-48
2021/10/09 02:51:06;;;;;;;103.90;58.50;;;10.10;99.90;;;;;;5101226;28;20227;-48
2021/10/09 02:53:33;;;;;;;92.35;53.50;;;10.10;99.90;;;;;;5087515;28;20052;-48
2021/10/09 02:55:59;;;;;;;102.70;55.40;;;10.10;99.90;;;;;;5098568;28;20052;-49
2021/10/09 02:58:28;;;;;;;93.45;56.92;;;10.10;99.90;;;;;;5088089;28;20044;-49
2021/10/09 03:00:54;;;;;;;105.70;58.80;;;10.20;99.90;;;;;;5090632;28;20803;-49
2021/10/09 03:03:21;;;;;;;96.82;54.90;;;10.20;99.90;;;;;;5089287;28;20058;-48
2021/10/09 03:05:47;;;;;;;95.50;57.70;;;10.20;99.90;;;;;;5107486;28;20067;-48
2021/10/09 03:08:13;;;;;;;104.85;57.55;;;10.20;99.90;;;;;;5105845;28;20083;-50
2021/10/09 03:10:40;;;;;;;101.03;58.03;;;10.20;99.90;;;;;;5094009;28;20051;-49
2021/10/09 03:13:08;;;;;;;121.60;59.40;;;10.20;99.90;;;;;;5112008;28;20043;-49
2021/10/09 03:15:35;;;;;;;116.47;58.20;;;10.20;99.90;;;;;;5093520;28;20056;-49
2021/10/09 03:18:02;;;;;;;116.28;56.42;;;10.20;99.90;;;;;;5091964;28;20524;-50
2021/10/09 03:20:28;;;;;;;98.57;51.10;;;10.20;99.90;;;;;;5111790;28;20051;-53
2021/10/09 03:22:56;;;;;;;115.80;58.00;;;10.20;99.90;;;;;;5110259;28;20063;-49
2021/10/09 03:25:22;;;;;;;91.97;56.95;;;10.20;99.90;;;;;;5109072;28;20126;-51
2021/10/09 03:27:49;;;;;;;113.85;58.13;;;10.20;99.90;;;;;;5110740;28;20047;-54
2021/10/09 03:30:16;;;;;;;88.53;52.40;;;10.20;99.90;;;;;;5090576;28;20056;-50
2021/10/09 03:32:43;;;;;;;93.43;58.55;;;10.20;99.90;;;;;;5072495;28;20056;-51
2021/10/09 03:35:09;;;;;;;111.90;54.05;;;10.20;99.90;;;;;;5094367;28;20079;-50
2021/10/09 03:37:39;;;;;;;97.80;55.75;;;10.20;99.90;;;;;;5093247;28;20108;-51
2021/10/09 03:40:08;;;;;;;116.07;59.05;;;10.20;99.90;;;;;;5091904;28;20052;-50
2021/10/09 03:42:47;;;;;;;96.70;55.97;;;10.20;99.90;;;;;;5091815;28;20048;-50
2021/10/09 03:47:56;;;;;;;101.28;59.30;;;10.20;99.90;;;;;;5085640;28;20054;-53
2021/10/09 03:53:05;;;;;;;109.22;59.35;;;10.30;99.90;;;;;;5074767;28;20056;-52
2021/10/09 03:55:31;;;;;;;91.20;57.83;;;10.20;99.90;;;;;;5105278;28;20484;-49
2021/10/09 03:57:58;;;;;;;103.22;57.15;;;10.30;99.90;;;;;;5106592;28;20052;-50
2021/10/09 04:00:29;;;;;;;113.65;55.85;;;10.30;99.90;;;;;;5086316;28;20116;-49
2021/10/09 04:03:08;;;;;;;104.63;52.97;;;10.20;99.90;;;;;;5093034;28;20048;-51
2021/10/09 04:05:38;;;;;;;103.70;56.67;;;10.20;99.90;;;;;;5092983;28;20066;-48
2021/10/09 04:08:06;;;;;;;91.88;53.45;;;10.20;99.90;;;;;;5110481;28;20055;-47
2021/10/09 04:10:37;;;;;;;123.28;57.05;;;10.20;99.90;;;;;;5075385;28;20055;-50
2021/10/09 04:13:03;;;;;;;109.82;56.85;;;10.20;99.90;;;;;;5109662;28;20055;-49
2021/10/09 04:15:30;;;;;;;111.43;58.97;;;10.10;99.90;;;;;;5091931;28;20390;-50
2021/10/09 04:17:56;;;;;;;109.90;53.67;;;10.20;99.90;;;;;;5109841;28;20119;-50
2021/10/09 04:20:23;;;;;;;114.90;61.13;;;10.10;99.90;;;;;;5092097;28;20476;-49
2021/10/09 04:22:50;;;;;;;125.07;57.58;;;10.10;99.90;;;;;;5106693;28;20064;-51
2021/10/09 04:25:17;;;;;;;134.52;62.50;;;10.10;99.90;;;;;;5088710;28;20050;-50
2021/10/09 04:27:44;;;;;;;118.35;57.40;;;10.10;99.90;;;;;;5098094;28;20058;-51
2021/10/09 04:30:12;;;;;;;107.35;57.78;;;10.10;99.90;;;;;;5095740;28;20060;-52
2021/10/09 04:32:39;;;;;;;92.60;54.60;;;10.00;99.90;;;;;;5087327;28;20078;-51
2021/10/09 04:35:07;;;;;;;89.93;49.28;;;10.10;99.90;;;;;;5108275;28;20181;-51
2021/10/09 04:37:33;;;;;;;98.40;56.22;;;10.00;99.90;;;;;;5073334;28;20584;-50
2021/10/09 04:40:00;;;;;;;89.18;49.72;;;10.00;99.90;;;;;;5100789;28;20563;-50
2021/10/09 04:42:27;;;;;;;100.95;55.30;;;10.00;99.90;;;;;;5092343;28;20055;-50
2021/10/09 04:44:53;;;;;;;93.95;54.78;;;10.00;99.90;;;;;;5106734;28;20070;-48
2021/10/09 04:47:21;;;;;;;93.03;54.22;;;10.00;99.90;;;;;;5079364;28;20061;-50
2021/10/09 04:49:51;;;;;;;107.25;53.40;;;10.00;99.90;;;;;;5091645;28;20489;-50
2021/10/09 04:52:17;;;;;;;107.22;57.45;;;10.00;99.90;;;;;;5091846;28;20052;-51
2021/10/09 04:54:44;;;;;;;110.70;58.42;;;10.00;99.90;;;;;;5108984;28;20105;-48
2021/10/09 04:57:17;;;;;;;104.55;57.45;;;10.00;99.90;;;;;;5088245;28;20052;-48
2021/10/09 04:59:46;;;;;;;117.78;58.35;;;10.00;99.90;;;;;;5091708;28;20138;-51
2021/10/09 05:02:13;;;;;;;96.75;54.47;;;10.00;99.90;;;;;;5074287;28;20044;-48
2021/10/09 05:04:41;;;;;;;92.35;55.67;;;10.00;99.90;;;;;;5090525;28;20066;-51
2021/10/09 05:07:13;;;;;;;104.47;57.15;;;10.00;99.90;;;;;;5080480;28;20091;-50
2021/10/09 05:09:43;;;;;;;103.03;55.58;;;10.00;99.90;;;;;;5108382;28;20055;-52
2021/10/09 05:12:09;;;;;;;98.55;57.17;;;9.90;99.90;;;;;;5107546;28;20052;-50
2021/10/09 05:14:36;;;;;;;101.70;57.53;;;9.90;99.90;;;;;;5091073;28;20051;-49
2021/10/09 05:17:03;;;;;;;110.47;59.65;;;9.90;99.90;;;;;;5109294;28;20048;-52
2021/10/09 05:19:30;;;;;;;108.82;59.03;;;9.90;99.90;;;;;;5091062;28;20051;-52
2021/10/09 05:21:59;;;;;;;95.50;58.35;;;9.90;99.90;;;;;;5077415;28;20087;-52
2021/10/09 05:24:26;;;;;;;86.82;50.60;;;10.00;99.90;;;;;;5106903;28;20048;-50
2021/10/09 05:26:53;;;;;;;112.88;56.13;;;9.90;99.90;;;;;;5090033;28;20090;-50
2021/10/09 05:29:20;;;;;;;116.88;60.05;;;10.00;99.90;;;;;;5088206;28;20054;-50
2021/10/09 05:31:52;;;;;;;126.53;61.03;;;10.00;99.90;;;;;;5101558;28;20198;-52
2021/10/09 05:34:19;;;;;;;112.80;60.88;;;10.00;99.90;;;;;;5079110;28;20600;-52
2021/10/09 05:36:47;;;;;;;138.25;64.40;;;10.00;99.90;;;;;;5090219;28;20707;-51
2021/10/09 05:39:13;;;;;;;102.07;57.25;;;10.00;99.90;;;;;;5090876;28;20050;-53
2021/10/09 05:41:51;;;;;;;97.72;55.58;;;10.00;99.90;;;;;;5107294;28;20059;-51
2021/10/09 05:44:17;;;;;;;87.88;52.05;;;10.00;99.90;;;;;;5090416;28;20060;-50
2021/10/09 05:46:43;;;;;;;96.90;55.50;;;10.00;99.90;;;;;;5089634;28;20098;-49
2021/10/09 05:49:11;;;;;;;88.65;53.45;;;9.90;99.90;;;;;;5091250;28;20059;-50
2021/10/09 05:51:43;;;;;;;84.53;52.45;;;9.90;99.90;;;;;;5091056;28;20055;-50
2021/10/09 05:54:20;;;;;;;83.25;52.08;;;9.90;99.90;;;;;;5091214;28;20475;-51
2021/10/09 06:43:31;;;;;;;70.72;47.42;;;10.60;99.90;;;;;;5049266;28;20056;-53
2021/10/09 07:00:12;;;;;;;68.60;48.65;;;10.30;99.90;;;;;;4986228;28;20170;-55
2021/10/09 07:02:41;;;;;;;72.63;49.15;;;10.30;99.90;;;;;;4989469;28;20145;-56
2021/10/09 07:05:09;;;;;;;70.82;47.55;;;10.30;99.90;;;;;;4972923;28;20059;-56
2021/10/09 07:07:52;;;;;;;72.05;48.00;;;10.30;99.90;;;;;;4986136;28;20055;-55
2021/10/09 07:10:19;;;;;;;68.57;45.13;;;10.30;99.90;;;;;;4964850;28;20050;-57
2021/10/09 07:12:46;;;;;;;63.75;46.58;;;10.40;99.90;;;;;;5000184;28;20637;-57
2021/10/09 07:15:14;;;;;;;69.55;44.30;;;10.40;99.90;;;;;;4973406;28;20050;-57
2021/10/09 07:17:42;;;;;;;60.63;46.63;;;10.40;99.90;;;;;;5000506;28;20422;-56
2021/10/09 07:20:08;;;;;;;65.63;48.60;;;10.50;99.90;;;;;;4995965;28;20505;-57
2021/10/09 07:22:39;;;;;;;59.00;44.40;;;10.40;99.90;;;;;;5011690;28;20095;-56
2021/10/09 07:25:06;;;;;;;68.32;47.75;;;10.50;99.90;;;;;;5012241;28;20065;-57
2021/10/09 07:27:34;;;;;;;63.55;48.05;;;10.50;99.90;;;;;;5012218;28;20061;-57
2021/10/09 07:30:04;;;;;;;62.13;45.72;;;10.50;99.90;;;;;;5050791;28;20394;-57
2021/10/09 07:32:30;;;;;;;64.63;47.72;;;10.60;99.90;;;;;;5069831;28;20056;-54
2021/10/09 07:34:56;;;;;;;65.47;47.03;;;10.50;99.90;;;;;;5071155;28;20072;-57
2021/10/09 07:37:23;;;;;;;62.00;45.45;;;10.60;99.90;;;;;;5071164;28;20058;-56
2021/10/09 07:39:49;;;;;;;66.20;47.25;;;10.60;99.90;;;;;;5071673;28;20532;-56
2021/10/09 07:42:15;;;;;;;58.97;45.35;;;10.60;99.90;;;;;;5070133;28;20047;-57
2021/10/09 07:44:41;;;;;;;53.70;41.78;;;10.70;99.90;;;;;;5069760;28;20127;-57
2021/10/09 07:47:09;;;;;;;53.83;42.67;;;10.70;99.90;;;;;;5071291;28;20075;-57
2021/10/09 07:49:35;;;;;;;52.60;40.90;;;10.70;99.90;;;;;;5071355;28;20055;-56
2021/10/09 07:52:04;;;;;;;54.85;43.08;;;10.70;99.90;;;;;;5073707;28;20049;-56
2021/10/09 07:54:32;;;;;;;59.58;43.42;;;10.80;99.90;;;;;;5072356;28;20110;-56
2021/10/09 07:57:01;;;;;;;57.30;42.33;;;10.80;99.90;;;;;;5070917;28;20824;-54
2021/10/09 07:59:28;;;;;;;51.17;40.60;;;10.80;99.90;;;;;;5087070;28;20808;-58
2021/10/09 08:01:55;;;;;;;51.30;36.40;;;10.90;99.90;;;;;;5092246;28;20056;-60
2021/10/09 08:04:21;;;;;;;56.20;42.60;;;10.90;99.90;;;;;;5091972;28;20047;-55
2021/10/09 08:06:47;;;;;;;53.55;40.55;;;10.90;99.90;;;;;;5106447;28;20411;-56
2021/10/09 08:09:14;;;;;;;52.00;40.90;;;11.00;99.90;;;;;;5110091;28;20056;-55
2021/10/09 08:11:42;;;;;;;50.78;40.75;;;11.00;99.90;;;;;;5093347;28;20044;-57
2021/10/09 08:14:09;;;;;;;51.10;39.67;;;11.20;99.90;;;;;;5108580;28;20150;-58
2021/10/09 08:16:36;;;;;;;46.63;37.38;;;11.40;99.90;;;;;;5110800;28;20043;-58
2021/10/09 08:19:04;;;;;;;47.78;38.75;;;11.60;99.90;;;;;;5111505;28;20047;-57
2021/10/09 08:21:34;;;;;;;48.35;38.08;;;11.70;99.90;;;;;;5111552;28;20130;-57
2021/10/09 08:24:19;;;;;;;43.17;35.05;;;12.00;99.90;;;;;;5090341;28;20052;-56
2021/10/09 08:40:18;;;;;;;40.58;34.22;;;13.90;99.90;;;;;;5090747;28;20106;-58
2021/10/09 08:42:44;;;;;;;39.78;32.97;;;14.20;99.90;;;;;;5090357;28;20052;-55
2021/10/09 08:45:13;;;;;;;41.30;34.40;;;14.50;99.90;;;;;;5109462;28;20055;-56
2021/10/09 08:47:42;;;;;;;39.60;34.45;;;14.30;99.90;;;;;;5111180;28;20055;-56
2021/10/09 08:50:09;;;;;;;39.70;32.85;;;14.10;99.90;;;;;;5110082;28;20059;-56
2021/10/09 08:52:35;;;;;;;39.83;32.85;;;14.70;99.90;;;;;;5093008;28;20556;-57
2021/10/09 08:55:22;;;;;;;38.90;33.65;;;14.50;99.90;;;;;;5110709;28;20069;-58
2021/10/09 08:57:51;;;;;;;41.95;34.55;;;14.30;99.90;;;;;;5109748;28;20083;-57
2021/10/09 09:00:23;;;;;;;37.17;33.08;;;14.20;99.90;;;;;;5108245;28;20062;-56
2021/10/09 09:03:09;;;;;;;;;;;14.30;99.90;;;;;;5110299;28;20047;-57
2021/10/09 09:09:09;;;;;;;36.38;31.98;;;15.30;99.90;;;;;;5046908;28;20049;-57
2021/10/09 09:40:12;;;;;;;29.73;26.83;;;20.40;84.20;;;;;;4989308;28;21001;-57
2021/10/09 09:42:50;;;;;;;28.15;25.00;;;20.90;81.90;;;;;;5003288;28;20196;-55
2021/10/09 09:45:20;;;;;;;31.15;26.70;;;21.20;71.90;;;;;;5010940;28;20056;-55
2021/10/09 09:47:47;;;;;;;27.55;24.75;;;20.90;70.20;;;;;;5030278;28;20086;-55
2021/10/09 09:50:18;;;;;;;27.88;25.08;;;20.50;71.90;;;;;;5046182;28;20052;-55
2021/10/09 09:52:45;;;;;;;27.70;24.70;;;20.10;69.60;;;;;;5046165;28;20152;-55
2021/10/09 09:55:15;;;;;;;27.70;24.50;;;20.50;72.90;;;;;;5047268;28;20521;-55
2021/10/09 09:57:42;;;;;;;29.30;24.88;;;20.90;69.80;;;;;;5046313;28;20503;-55
2021/10/09 10:00:13;;;;;;;29.40;26.05;;;20.20;66.60;;;;;;5046110;28;20056;-55
2021/10/09 10:02:56;;;;;;;30.20;26.67;;;20.30;65.20;;;;;;5046433;28;20103;-56
2021/10/09 10:05:27;;;;;;;30.35;26.05;;;20.40;66.10;;;;;;5063586;28;20056;-55
2021/10/09 10:07:56;;;;;;;29.50;26.30;;;20.80;65.80;;;;;;5105743;28;20058;-55
2021/10/09 10:10:25;;;;;;;29.52;26.30;;;20.60;66.90;;;;;;5100131;28;20083;-56
2021/10/09 10:12:57;;;;;;;30.08;26.20;;;20.80;65.90;;;;;;5090541;28;20356;-57
2021/10/09 10:15:30;;;;;;;;;;;20.80;61.30;;;;;;5092443;28;20051;-57
2021/10/09 10:17:58;;;;;;;31.98;27.25;;;20.80;60.30;;;;;;5109551;28;19930;-56
2021/10/09 10:20:46;;;;;;;28.88;24.73;;;20.80;63.30;;;;;;5089730;28;20487;-56
2021/10/09 10:23:36;;;;;;;29.17;25.73;;;21.00;59.10;;;;;;5108698;28;20055;-53
2021/10/09 10:26:20;;;;;;;29.77;26.52;;;21.20;60.70;;;;;;5107858;28;20051;-54
2021/10/09 10:28:48;;;;;;;30.25;25.10;;;21.40;61.60;;;;;;5104900;28;20514;-53
2021/10/09 10:31:14;;;;;;;31.92;25.75;;;22.00;62.60;;;;;;5107782;28;20040;-54
2021/10/09 10:33:46;;;;;;;28.88;25.88;;;22.70;60.50;;;;;;5107149;28;20055;-54
2021/10/09 10:36:33;;;;;;;33.60;27.15;;;22.60;59.10;;;;;;5108295;28;20052;-54
2021/10/09 10:38:59;;;;;;;28.35;25.27;;;22.50;59.50;;;;;;5106607;28;20454;-53
2021/10/09 10:41:45;;;;;;;32.38;25.75;;;22.50;59.00;;;;;;5101068;28;20116;-54
2021/10/09 10:44:43;;;;;;;30.65;26.70;;;22.70;56.50;;;;;;5089938;28;20056;-53
2021/10/09 10:48:03;;;;;;;29.33;26.27;;;22.80;54.80;;;;;;5101050;28;20131;-54
2021/10/09 10:51:02;;;;;;;28.15;25.13;;;22.80;53.30;;;;;;5107112;28;20130;-53
2021/10/09 10:53:59;;;;;;;27.73;24.88;;;23.70;53.80;;;;;;5104001;28;20056;-54
2021/10/09 10:56:25;;;;;;;28.95;25.85;;;23.30;53.60;;;;;;5108574;28;20043;-54
2021/10/09 10:59:29;;;;;;;28.30;25.30;;;23.00;53.90;;;;;;5109209;28;20441;-54
2021/10/09 11:02:15;;;;;;;30.52;22.98;;;22.70;52.10;;;;;;5080259;28;20937;-54
2021/10/09 11:04:48;;;;;;;24.48;20.92;;;22.40;50.80;;;;;;5108224;28;20474;-54
2021/10/09 11:07:14;;;;;;;26.50;22.17;;;22.90;52.50;;;;;;5107963;28;20052;-54
2021/10/09 11:09:44;;;;;;;24.80;22.05;;;22.90;51.90;;;;;;5090171;28;20059;-54
2021/10/09 11:12:19;;;;;;;23.98;21.25;;;23.10;51.60;;;;;;5108579;28;20060;-54
2021/10/09 11:14:45;;;;;;;26.70;23.88;;;23.30;50.90;;;;;;5107536;28;20139;-54
2021/10/09 11:17:12;;;;;;;26.10;23.00;;;23.50;50.10;;;;;;5089722;28;20423;-48
2021/10/09 11:19:49;;;;;;;26.70;22.17;;;23.70;51.10;;;;;;5088672;28;20161;-52
2021/10/09 11:22:18;;;;;;;28.92;21.70;;;24.50;49.50;;;;;;5097794;28;20055;-58
2021/10/09 11:24:53;;;;;;;24.77;21.52;;;24.30;49.20;;;;;;5108493;28;20051;-59
2021/10/09 11:27:20;;;;;;;25.90;21.08;;;24.50;49.90;;;;;;5109052;28;20139;-58
2021/10/09 11:30:06;;;;;;;22.38;19.98;;;24.90;49.40;;;;;;5112390;28;20100;-58
2021/10/09 11:32:35;;;;;;;22.80;20.42;;;24.90;46.80;;;;;;5112823;28;20058;-59
2021/10/09 11:35:02;;;;;;;23.05;20.60;;;24.80;48.40;;;;;;5111677;28;20060;-58
2021/10/09 11:37:28;;;;;;;24.73;20.30;;;25.10;47.30;;;;;;5107535;28;20458;-58
2021/10/09 11:39:58;;;;;;;21.95;18.77;;;25.20;47.00;;;;;;5093241;28;20095;-58
2021/10/09 11:42:37;;;;;;;22.15;19.55;;;25.50;46.60;;;;;;5111096;28;20052;-59
2021/10/09 11:56:11;;;;;;;20.50;17.85;;;25.50;44.90;;;;;;5109549;28;20056;-57
2021/10/09 11:58:47;;;;;;;23.55;18.58;;;25.50;44.50;;;;;;5091968;28;20055;-53
2021/10/09 12:01:26;;;;;;;25.42;18.80;;;25.70;44.40;;;;;;5106004;28;20051;-50
2021/10/09 12:03:54;;;;;;;24.05;18.95;;;25.70;45.40;;;;;;5091507;28;20044;-50
2021/10/09 12:06:21;;;;;;;22.25;17.77;;;25.60;45.40;;;;;;5110215;28;20064;-53
2021/10/09 12:08:51;;;;;;;21.35;18.05;;;25.70;44.50;;;;;;5108046;28;20055;-57
2021/10/09 12:11:26;;;;;;;21.15;17.45;;;25.60;44.10;;;;;;5109342;28;20067;-56
2021/10/09 12:13:53;;;;;;;18.25;16.27;;;25.60;43.10;;;;;;5108202;28;20055;-55
2021/10/09 12:16:46;;;;;;;18.50;16.45;;;25.50;43.80;;;;;;5109142;28;20174;-56
2021/10/09 12:19:31;;;;;;;17.58;15.68;;;25.70;42.10;;;;;;5009230;28;20057;-55
2021/10/09 12:22:06;;;;;;;21.45;15.60;;;25.70;42.30;;;;;;5023823;28;20163;-55
2021/10/09 12:24:49;;;;;;;20.02;17.90;;;26.00;42.40;;;;;;5019118;28;20057;-55
2021/10/09 12:27:22;;;;;;;17.65;15.77;;;26.10;42.30;;;;;;5016795;28;20054;-55
2021/10/09 12:30:10;;;;;;;18.35;16.02;;;25.90;42.00;;;;;;5026226;28;20477;-54
2021/10/09 12:32:47;;;;;;;20.27;16.77;;;26.60;41.60;;;;;;5021959;28;20146;-55
2021/10/09 12:35:19;;;;;;;20.70;16.23;;;26.60;42.60;;;;;;5018296;28;20064;-56
2021/10/09 12:38:01;;;;;;;18.70;15.50;;;26.70;40.20;;;;;;5006982;28;20072;-56
2021/10/09 12:40:35;;;;;;;25.25;16.33;;;26.70;40.20;;;;;;5009308;28;20045;-57
2021/10/09 12:43:01;;;;;;;18.88;15.40;;;26.40;41.50;;;;;;5022630;28;20061;-56
2021/10/09 12:45:33;;;;;;;17.55;15.20;;;27.30;41.90;;;;;;5022199;28;20518;-58
2021/10/09 12:48:03;;;;;;;19.15;15.40;;;27.40;41.30;;;;;;5003825;28;20048;-56
2021/10/09 12:50:32;;;;;;;20.60;14.68;;;27.00;40.60;;;;;;5018167;28;20524;-56
2021/10/09 12:53:00;;;;;;;18.50;14.82;;;26.90;40.80;;;;;;5016259;28;20053;-56
2021/10/09 12:55:28;;;;;;;16.98;14.63;;;26.40;40.50;;;;;;5022682;28;20475;-56
2021/10/09 12:57:59;;;;;;;19.08;15.65;;;26.90;40.10;;;;;;5101897;28;20132;-56
2021/10/09 13:00:26;;;;;;;16.73;14.93;;;27.00;39.90;;;;;;5089102;28;20055;-55
2021/10/09 13:02:53;;;;;;;18.80;14.68;;;26.30;39.90;;;;;;5088954;28;20495;-56
2021/10/09 13:05:29;;;;;;;20.55;14.77;;;26.50;40.70;;;;;;5103578;28;20048;-55
2021/10/09 13:07:58;;;;;;;20.55;14.18;;;26.40;41.20;;;;;;5104169;28;20109;-56
2021/10/09 13:10:25;;;;;;;17.50;15.40;;;26.20;41.20;;;;;;5088592;28;20206;-55
2021/10/09 13:12:52;;;;;;;17.55;15.18;;;26.60;41.10;;;;;;5089949;28;20495;-56
2021/10/09 13:15:19;;;;;;;22.65;15.00;;;26.20;40.70;;;;;;5106109;28;20069;-54
2021/10/09 13:17:47;;;;;;;19.00;15.50;;;26.60;40.70;;;;;;5091384;28;20051;-54
2021/10/09 13:20:15;;;;;;;17.02;14.32;;;26.80;40.50;;;;;;5108753;28;20100;-54
2021/10/09 13:22:44;;;;;;;17.25;13.43;;;26.20;40.60;;;;;;5109104;28;20047;-53
2021/10/09 13:25:16;;;;;;;19.38;14.63;;;26.70;40.40;;;;;;5108867;28;20051;-54
2021/10/09 13:27:44;;;;;;;18.00;14.13;;;26.70;40.40;;;;;;5105619;28;20052;-54
2021/10/09 13:30:13;;;;;;;18.40;13.75;;;26.60;40.00;;;;;;5098621;28;20105;-54
2021/10/09 13:32:42;;;;;;;22.15;15.50;;;26.70;39.40;;;;;;5101548;28;20151;-52
2021/10/09 13:35:11;;;;;;;17.58;14.20;;;26.50;39.80;;;;;;5092419;28;20165;-54
2021/10/09 13:37:55;;;;;;;18.23;14.48;;;26.40;40.60;;;;;;5108424;28;20091;-52
2021/10/09 13:40:21;;;;;;;16.45;14.20;;;26.80;40.00;;;;;;5107913;28;20617;-52
2021/10/09 13:42:49;;;;;;;18.25;12.77;;;26.80;39.60;;;;;;5108249;28;20055;-53
2021/10/09 13:45:16;;;;;;;18.70;12.98;;;27.20;39.70;;;;;;5090040;28;20120;-52
2021/10/09 13:47:43;;;;;;;14.98;13.38;;;26.50;39.80;;;;;;5108705;28;20074;-48
2021/10/09 13:50:12;;;;;;;19.27;13.50;;;26.40;39.20;;;;;;5107532;28;20059;-52
2021/10/09 13:52:41;;;;;;;15.35;13.20;;;26.30;40.40;;;;;;5108189;28;20051;-50
2021/10/09 13:55:09;;;;;;;16.67;12.55;;;26.70;39.30;;;;;;5108585;28;20051;-53
2021/10/09 13:57:38;;;;;;;18.13;13.27;;;26.30;39.70;;;;;;5107950;28;20063;-52
2021/10/09 14:00:05;;;;;;;18.02;13.13;;;26.10;40.60;;;;;;5090010;28;20043;-51
2021/10/09 14:02:34;;;;;;;16.20;12.07;;;26.70;40.00;;;;;;5091100;28;20172;-52
2021/10/09 14:05:04;;;;;;;18.13;13.43;;;26.60;40.20;;;;;;5102390;28;20523;-51
2021/10/09 14:07:33;;;;;;;17.00;13.18;;;26.70;39.20;;;;;;5107607;28;20063;-50
2021/10/09 14:10:02;;;;;;;15.55;13.10;;;26.40;39.80;;;;;;5107678;28;20671;-52
2021/10/09 14:12:31;;;;;;;20.40;13.75;;;26.30;40.40;;;;;;5107321;28;20142;-50
2021/10/09 14:14:58;;;;;;;17.70;14.40;;;26.20;40.70;;;;;;5109279;28;20060;-52
2021/10/09 14:17:31;;;;;;;17.65;13.38;;;26.20;39.90;;;;;;5107547;28;20081;-52
2021/10/09 14:20:01;;;;;;;19.83;12.82;;;26.70;40.20;;;;;;5108030;28;20063;-52
2021/10/09 14:22:31;;;;;;;15.85;13.73;;;26.60;40.30;;;;;;5106836;28;20147;-53
2021/10/09 14:24:59;;;;;;;19.17;14.27;;;26.90;39.00;;;;;;5089619;28;20598;-52
2021/10/09 14:27:29;;;;;;;17.63;13.13;;;26.80;40.20;;;;;;5108061;28;20048;-51
2021/10/09 14:30:01;;;;;;;14.15;12.20;;;26.70;40.40;;;;;;5085886;28;20118;-52
2021/10/09 14:32:29;;;;;;;20.10;12.75;;;27.10;39.50;;;;;;5106955;28;20055;-52
2021/10/09 14:34:57;;;;;;;17.23;11.63;;;26.70;39.60;;;;;;5107343;28;20059;-52
2021/10/09 14:37:26;;;;;;;16.48;12.57;;;26.60;40.30;;;;;;5107986;28;20047;-52
2021/10/09 14:39:52;;;;;;;14.88;12.10;;;26.50;40.00;;;;;;5108998;28;20101;-51
2021/10/09 14:42:21;;;;;;;14.05;12.43;;;26.40;40.10;;;;;;5108261;28;20461;-52
2021/10/09 14:44:48;;;;;;;15.60;12.52;;;26.50;40.00;;;;;;5101266;28;20074;-51
2021/10/09 15:19:36;;;;;;;15.73;12.07;;;22.80;46.40;;;;;;5090325;28;20647;-50
2021/10/09 15:22:08;;;;;;;17.77;12.65;;;22.50;47.00;;;;;;5088073;28;20052;-52
2021/10/09 15:24:35;;;;;;;19.13;13.02;;;21.60;48.50;;;;;;5090636;28;20054;-51
2021/10/09 15:27:01;;;;;;;16.77;11.80;;;21.30;49.60;;;;;;5073297;28;20504;-50